Time;durP1;ratioP1;P1;durP2;ratioP2;P2;SDS_P1;SDS_P2;PMS_P1;PMS_P2;Temp;Humidity;BMP_temperature;BMP_pressure;BME280_temperature;BME280_humidity;BME280_pressure;Samples;Min_cycle;Max_cycle;Signal;HPM_P1;HPM_P2
2022/01/09 00:00:29;;;;;;;119.72;53.00;;;;;;;;;;5057019;28;20071;-71
2022/01/09 00:02:56;;;;;;;136.55;50.92;;;;;;;;;;5056443;28;20104;-71
2022/01/09 00:05:22;;;;;;;118.97;43.65;;;;;;;;;;5057083;28;20419;-71
2022/01/09 00:07:48;;;;;;;116.60;47.70;;;;;;;;;;5056403;28;20246;-71
2022/01/09 00:10:16;;;;;;;124.57;47.10;;;;;;;;;;5056281;28;20025;-73
2022/01/09 00:12:42;;;;;;;133.77;49.05;;;;;;;;;;5055243;28;20013;-71
2022/01/09 00:15:09;;;;;;;132.55;48.15;;;;;;;;;;5056182;28;20036;-71
2022/01/09 00:17:35;;;;;;;134.70;51.90;;;;;;;;;;5055682;28;20352;-71
2022/01/09 00:20:01;;;;;;;137.65;50.08;;;;;;;;;;5056800;28;20020;-71
2022/01/09 00:22:39;;;;;;;152.60;54.97;;;;;;;;;;5056724;28;20020;-71
2022/01/09 00:25:06;;;;;;;136.90;53.92;;;;;;;;;;5056257;28;20047;-71
2022/01/09 00:27:32;;;;;;;123.80;49.38;;;;;;;;;;5055903;28;20111;-71
2022/01/09 00:29:58;;;;;;;119.10;48.10;;;;;;;;;;5058989;28;20024;-71
2022/01/09 00:32:24;;;;;;;110.55;44.75;;;;;;;;;;5059231;28;20021;-72
2022/01/09 00:34:50;;;;;;;127.10;45.20;;;;;;;;;;5060322;28;20502;-71
2022/01/09 00:37:16;;;;;;;115.13;42.17;;;;;;;;;;5060290;28;20025;-71
2022/01/09 00:39:42;;;;;;;124.57;46.08;;;;;;;;;;5059939;28;20020;-70
2022/01/09 00:42:08;;;;;;;106.38;46.92;;;;;;;;;;5060451;28;20027;-71
2022/01/09 00:44:34;;;;;;;94.10;44.72;;;;;;;;;;5059886;28;20067;-71
2022/01/09 00:47:00;;;;;;;88.82;42.38;;;;;;;;;;5059215;28;20021;-71
2022/01/09 00:49:26;;;;;;;91.28;39.92;;;;;;;;;;5059167;28;20577;-71
2022/01/09 00:51:53;;;;;;;83.53;38.13;;;;;;;;;;5058811;28;20063;-72
2022/01/09 00:54:19;;;;;;;93.78;35.63;;;;;;;;;;5059566;28;20029;-71
2022/01/09 00:56:45;;;;;;;113.35;39.45;;;;;;;;;;5060184;28;20323;-71
2022/01/09 00:59:11;;;;;;;83.97;37.72;;;;;;;;;;5042333;28;20027;-72
2022/01/09 01:01:38;;;;;;;83.88;37.95;;;;;;;;;;5059112;28;20063;-72
2022/01/09 01:04:04;;;;;;;85.00;36.67;;;;;;;;;;5060134;28;20028;-71
2022/01/09 01:06:30;;;;;;;81.78;37.33;;;;;;;;;;5059794;28;20318;-71
2022/01/09 01:08:56;;;;;;;84.70;37.78;;;;;;;;;;5059928;28;20028;-71
2022/01/09 01:11:22;;;;;;;83.32;36.88;;;;;;;;;;5059907;28;20021;-71
2022/01/09 01:13:49;;;;;;;83.32;34.60;;;;;;;;;;5059607;28;20112;-71
2022/01/09 01:16:15;;;;;;;81.68;36.45;;;;;;;;;;5059597;28;20343;-71
2022/01/09 01:18:44;;;;;;;99.07;41.95;;;;;;;;;;5058090;28;20017;-71
2022/01/09 01:21:12;;;;;;;85.03;38.65;;;;;;;;;;5058094;28;20052;-71
2022/01/09 01:23:38;;;;;;;83.18;35.97;;;;;;;;;;5058604;28;20021;-71
2022/01/09 01:26:04;;;;;;;83.03;36.90;;;;;;;;;;5059083;28;20029;-71
2022/01/09 01:28:30;;;;;;;75.85;34.17;;;;;;;;;;5058040;28;20017;-71
2022/01/09 01:30:56;;;;;;;80.40;35.33;;;;;;;;;;5059605;28;20073;-71
2022/01/09 01:33:23;;;;;;;83.18;36.35;;;;;;;;;;5058200;28;20095;-71
2022/01/09 01:35:49;;;;;;;75.40;36.38;;;;;;;;;;5058271;28;20056;-71
2022/01/09 01:38:15;;;;;;;74.53;31.42;;;;;;;;;;5059333;28;20075;-71
2022/01/09 01:40:41;;;;;;;73.55;35.10;;;;;;;;;;5058329;28;20334;-71
2022/01/09 01:43:08;;;;;;;67.72;30.10;;;;;;;;;;5058750;28;20100;-71
2022/01/09 01:45:34;;;;;;;73.43;33.42;;;;;;;;;;5059340;28;20032;-72
2022/01/09 01:48:06;;;;;;;72.53;34.15;;;;;;;;;;5041673;28;20023;-71
2022/01/09 01:50:36;;;;;;;70.75;33.17;;;;;;;;;;5058651;28;20021;-71
2022/01/09 01:53:04;;;;;;;69.45;30.58;;;;;;;;;;5059099;28;20490;-71
2022/01/09 01:55:36;;;;;;;80.78;34.30;;;;;;;;;;5058448;28;20454;-71
2022/01/09 01:58:03;;;;;;;81.05;35.20;;;;;;;;;;5041241;28;20119;-71
2022/01/09 02:00:29;;;;;;;80.20;31.77;;;;;;;;;;5058431;28;20017;-71
2022/01/09 02:02:54;;;;;;;72.65;32.15;;;;;;;;;;5058374;28;20016;-71
2022/01/09 02:05:20;;;;;;;83.30;35.65;;;;;;;;;;5058830;28;20100;-71
2022/01/09 02:07:46;;;;;;;77.90;35.88;;;;;;;;;;5058968;28;20032;-71
2022/01/09 02:10:12;;;;;;;90.65;37.97;;;;;;;;;;5058809;28;20025;-71
2022/01/09 02:12:40;;;;;;;91.78;38.20;;;;;;;;;;5058164;28;20025;-72
2022/01/09 02:15:25;;;;;;;83.82;33.30;;;;;;;;;;5058080;28;20036;-71
2022/01/09 02:17:51;;;;;;;84.00;35.20;;;;;;;;;;5058559;28;20107;-71
2022/01/09 02:20:17;;;;;;;79.57;34.97;;;;;;;;;;5058585;28;20040;-71
2022/01/09 02:22:42;;;;;;;97.28;36.90;;;;;;;;;;5058210;28;20021;-71
2022/01/09 02:25:10;;;;;;;84.93;36.30;;;;;;;;;;5057123;28;20028;-71
2022/01/09 02:27:36;;;;;;;87.28;39.05;;;;;;;;;;5057380;28;20024;-71
2022/01/09 02:30:02;;;;;;;94.93;38.67;;;;;;;;;;5058443;28;20112;-71
2022/01/09 02:32:28;;;;;;;76.13;35.60;;;;;;;;;;5058370;28;20024;-72
2022/01/09 02:34:54;;;;;;;78.38;31.92;;;;;;;;;;5057747;28;20036;-71
2022/01/09 02:37:21;;;;;;;85.60;35.67;;;;;;;;;;5058213;28;20021;-71
2022/01/09 02:39:49;;;;;;;81.03;34.75;;;;;;;;;;5057660;28;20419;-71
2022/01/09 02:42:23;;;;;;;71.40;33.15;;;;;;;;;;5056972;28;20021;-71
2022/01/09 02:44:50;;;;;;;109.63;41.15;;;;;;;;;;5058275;28;20017;-71
2022/01/09 02:47:16;;;;;;;87.07;35.63;;;;;;;;;;5057525;28;20019;-71
2022/01/09 02:49:47;;;;;;;95.97;37.92;;;;;;;;;;5056430;28;20017;-71
2022/01/09 02:52:27;;;;;;;73.82;32.42;;;;;;;;;;5057790;28;20052;-71
2022/01/09 02:55:12;;;;;;;89.33;35.47;;;;;;;;;;5057355;28;20036;-71
2022/01/09 02:57:42;;;;;;;74.15;31.80;;;;;;;;;;5057962;28;20103;-71
2022/01/09 03:00:12;;;;;;;85.13;36.40;;;;;;;;;;5056550;28;20017;-71
2022/01/09 03:02:38;;;;;;;79.57;31.52;;;;;;;;;;5057901;28;20017;-71
2022/01/09 03:05:05;;;;;;;78.15;34.35;;;;;;;;;;5056752;28;20017;-71
2022/01/09 03:07:30;;;;;;;74.03;31.90;;;;;;;;;;5057298;28;20017;-71
2022/01/09 03:09:56;;;;;;;68.63;31.95;;;;;;;;;;5056230;28;20017;-71
2022/01/09 03:12:23;;;;;;;75.85;31.95;;;;;;;;;;5055958;28;20021;-71
2022/01/09 03:14:49;;;;;;;70.85;34.25;;;;;;;;;;5056372;28;20024;-71
2022/01/09 03:17:16;;;;;;;87.93;37.35;;;;;;;;;;5056147;28;20434;-71
2022/01/09 03:19:42;;;;;;;72.60;34.22;;;;;;;;;;5039907;28;20111;-71
2022/01/09 03:22:08;;;;;;;80.50;36.67;;;;;;;;;;5057499;28;20450;-71
2022/01/09 03:24:34;;;;;;;76.72;36.17;;;;;;;;;;5055993;28;20404;-71
2022/01/09 03:27:01;;;;;;;81.85;37.15;;;;;;;;;;5039515;28;20039;-71
2022/01/09 03:29:28;;;;;;;75.18;33.58;;;;;;;;;;5056130;28;20025;-71
2022/01/09 03:31:54;;;;;;;66.22;30.42;;;;;;;;;;5057335;28;20040;-71
2022/01/09 03:34:20;;;;;;;78.18;36.88;;;;;;;;;;5055619;28;20033;-71
2022/01/09 03:36:46;;;;;;;91.07;38.25;;;;;;;;;;5056229;28;20477;-71
2022/01/09 03:39:12;;;;;;;80.10;37.65;;;;;;;;;;5055901;28;20025;-73
2022/01/09 03:41:39;;;;;;;88.93;40.85;;;;;;;;;;5057414;28;20411;-72
2022/01/09 03:44:05;;;;;;;67.18;31.88;;;;;;;;;;5057161;28;20079;-71
2022/01/09 03:46:31;;;;;;;76.13;35.45;;;;;;;;;;5056735;28;20032;-72
2022/01/09 03:48:57;;;;;;;79.88;33.17;;;;;;;;;;5055596;28;20032;-71
2022/01/09 03:51:26;;;;;;;72.32;34.88;;;;;;;;;;5056052;28;20035;-71
2022/01/09 03:53:52;;;;;;;79.15;35.08;;;;;;;;;;5056427;28;20027;-72
2022/01/09 03:56:18;;;;;;;81.60;33.72;;;;;;;;;;5056624;28;20124;-71
2022/01/09 03:58:44;;;;;;;72.32;33.13;;;;;;;;;;5056457;28;20458;-71
2022/01/09 04:01:10;;;;;;;79.95;35.97;;;;;;;;;;5056638;28;20021;-71
2022/01/09 04:03:36;;;;;;;77.75;36.63;;;;;;;;;;5043827;28;20048;-71
2022/01/09 04:06:02;;;;;;;81.93;36.33;;;;;;;;;;5045894;28;20024;-71
2022/01/09 04:08:28;;;;;;;80.70;36.85;;;;;;;;;;5063357;28;20020;-71
2022/01/09 04:10:55;;;;;;;94.45;38.97;;;;;;;;;;5063494;28;20027;-71
2022/01/09 04:13:21;;;;;;;83.75;38.42;;;;;;;;;;5063500;28;20020;-71
2022/01/09 04:15:49;;;;;;;74.40;33.83;;;;;;;;;;5062489;28;20082;-73
2022/01/09 04:18:19;;;;;;;81.38;39.70;;;;;;;;;;5045645;28;20017;-71
2022/01/09 04:20:45;;;;;;;78.38;35.33;;;;;;;;;;5063476;28;20063;-71
2022/01/09 04:23:12;;;;;;;87.43;38.05;;;;;;;;;;5061677;28;20113;-71
2022/01/09 04:25:38;;;;;;;88.60;39.75;;;;;;;;;;5063392;28;20020;-71
2022/01/09 04:28:04;;;;;;;93.20;43.10;;;;;;;;;;5063429;28;20445;-71
2022/01/09 04:30:30;;;;;;;90.43;36.80;;;;;;;;;;5062860;28;20021;-71
2022/01/09 04:32:56;;;;;;;102.38;45.13;;;;;;;;;;5062821;28;20013;-71
2022/01/09 04:35:22;;;;;;;83.45;39.38;;;;;;;;;;5045612;28;20032;-72
2022/01/09 04:37:49;;;;;;;80.18;38.78;;;;;;;;;;5045681;28;20044;-71
2022/01/09 04:40:17;;;;;;;91.93;41.67;;;;;;;;;;5045389;28;20025;-72
2022/01/09 04:42:57;;;;;;;82.93;39.17;;;;;;;;;;5045688;28;20021;-71
2022/01/09 04:45:25;;;;;;;84.55;42.25;;;;;;;;;;5045106;28;20401;-71
2022/01/09 04:47:52;;;;;;;90.63;40.22;;;;;;;;;;5062805;28;20013;-72
2022/01/09 04:50:25;;;;;;;88.93;42.05;;;;;;;;;;5062164;28;20162;-71
2022/01/09 04:52:53;;;;;;;88.07;40.78;;;;;;;;;;5063254;28;20020;-71
2022/01/09 04:55:20;;;;;;;83.57;37.50;;;;;;;;;;5061981;28;20112;-71
2022/01/09 04:57:46;;;;;;;91.47;38.75;;;;;;;;;;5063124;28;20331;-71
2022/01/09 05:00:12;;;;;;;100.45;40.60;;;;;;;;;;5063089;28;20104;-71
2022/01/09 05:02:38;;;;;;;96.60;43.70;;;;;;;;;;5061833;28;20021;-71
2022/01/09 05:05:05;;;;;;;96.85;43.03;;;;;;;;;;5062719;28;20116;-71
2022/01/09 05:07:31;;;;;;;97.18;46.08;;;;;;;;;;5062897;28;20020;-71
2022/01/09 05:09:57;;;;;;;83.93;44.95;;;;;;;;;;5061916;28;20427;-71
2022/01/09 05:12:23;;;;;;;108.07;42.22;;;;;;;;;;5063062;28;20071;-71
2022/01/09 05:14:50;;;;;;;99.35;41.03;;;;;;;;;;5060060;28;20419;-71
2022/01/09 05:17:16;;;;;;;88.18;38.72;;;;;;;;;;5059878;28;20411;-71
2022/01/09 05:19:43;;;;;;;86.57;41.90;;;;;;;;;;5058932;28;20051;-71
2022/01/09 05:22:09;;;;;;;100.65;41.03;;;;;;;;;;5058094;28;20079;-71
2022/01/09 05:24:35;;;;;;;99.45;46.38;;;;;;;;;;5058675;28;20032;-71
2022/01/09 05:27:02;;;;;;;99.32;44.20;;;;;;;;;;5058452;28;20128;-71
2022/01/09 05:29:28;;;;;;;103.47;45.17;;;;;;;;;;5041382;28;20434;-71
2022/01/09 05:31:55;;;;;;;86.47;42.63;;;;;;;;;;5041635;28;20024;-71
2022/01/09 05:34:21;;;;;;;80.80;39.63;;;;;;;;;;5059371;28;20032;-71
2022/01/09 05:36:47;;;;;;;92.97;38.22;;;;;;;;;;5059491;28;20017;-72
2022/01/09 05:39:14;;;;;;;110.40;43.35;;;;;;;;;;5057669;28;20435;-71
2022/01/09 05:41:41;;;;;;;100.97;45.00;;;;;;;;;;5058200;28;20320;-72
2022/01/09 05:44:07;;;;;;;89.88;41.20;;;;;;;;;;5058029;28;20024;-72
2022/01/09 05:46:33;;;;;;;88.00;40.70;;;;;;;;;;5058324;28;20032;-71
2022/01/09 05:49:00;;;;;;;95.43;43.97;;;;;;;;;;5057445;28;20398;-72
2022/01/09 05:51:29;;;;;;;87.68;39.30;;;;;;;;;;5057417;28;20033;-71
2022/01/09 05:53:55;;;;;;;82.03;40.40;;;;;;;;;;5057424;28;20021;-71
2022/01/09 05:56:22;;;;;;;90.53;41.28;;;;;;;;;;5058540;28;20067;-72
2022/01/09 05:58:48;;;;;;;91.43;42.15;;;;;;;;;;5058673;28;20028;-71
2022/01/09 06:01:15;;;;;;;92.30;41.78;;;;;;;;;;5058696;28;20023;-72
2022/01/09 06:03:41;;;;;;;89.78;43.08;;;;;;;;;;5057865;28;20027;-71
2022/01/09 06:06:07;;;;;;;96.43;41.95;;;;;;;;;;5057567;28;20052;-71
2022/01/09 06:08:33;;;;;;;97.93;47.97;;;;;;;;;;5057345;28;20025;-72
2022/01/09 06:10:59;;;;;;;72.95;37.22;;;;;;;;;;5058251;28;20021;-72
2022/01/09 06:13:26;;;;;;;88.30;41.90;;;;;;;;;;5057057;28;20335;-71
2022/01/09 06:15:51;;;;;;;93.55;38.45;;;;;;;;;;5058104;28;20033;-72
2022/01/09 06:18:18;;;;;;;88.03;42.47;;;;;;;;;;5058535;28;20021;-71
2022/01/09 06:20:44;;;;;;;94.10;41.33;;;;;;;;;;5058557;28;20029;-71
2022/01/09 06:23:10;;;;;;;90.57;41.60;;;;;;;;;;5058419;28;20052;-72
2022/01/09 06:25:36;;;;;;;87.38;43.72;;;;;;;;;;5056282;28;20418;-72
2022/01/09 06:28:02;;;;;;;79.68;39.38;;;;;;;;;;5057394;28;20411;-71
2022/01/09 06:30:28;;;;;;;87.30;40.63;;;;;;;;;;5057942;28;20322;-71
2022/01/09 06:32:57;;;;;;;81.65;34.83;;;;;;;;;;5055906;28;20051;-72
2022/01/09 06:35:26;;;;;;;83.70;39.45;;;;;;;;;;5040856;28;20127;-72
2022/01/09 06:37:53;;;;;;;93.13;43.33;;;;;;;;;;5039322;28;20083;-72
2022/01/09 06:40:19;;;;;;;81.63;38.40;;;;;;;;;;5057046;28;20021;-72
2022/01/09 06:42:45;;;;;;;77.47;38.90;;;;;;;;;;5053724;28;20017;-73
2022/01/09 06:45:12;;;;;;;84.25;41.13;;;;;;;;;;5055385;28;20044;-72
2022/01/09 06:47:38;;;;;;;93.05;44.92;;;;;;;;;;5056734;28;20017;-73
2022/01/09 06:50:04;;;;;;;79.22;41.15;;;;;;;;;;5056439;28;20032;-72
2022/01/09 06:52:30;;;;;;;84.55;38.85;;;;;;;;;;5057322;28;20419;-72
2022/01/09 06:54:56;;;;;;;91.32;45.55;;;;;;;;;;5057136;28;20044;-72
2022/01/09 06:57:23;;;;;;;97.03;44.40;;;;;;;;;;5056443;28;20021;-72
2022/01/09 06:59:50;;;;;;;95.05;49.28;;;;;;;;;;5056277;28;20021;-71
2022/01/09 07:02:16;;;;;;;95.47;44.97;;;;;;;;;;5056262;28;20021;-71
2022/01/09 07:04:42;;;;;;;97.18;44.88;;;;;;;;;;5039752;28;20423;-71
2022/01/09 07:07:08;;;;;;;92.65;44.72;;;;;;;;;;5057135;28;20080;-71
2022/01/09 07:09:34;;;;;;;94.63;42.90;;;;;;;;;;5056396;28;20032;-72
2022/01/09 07:12:00;;;;;;;95.03;41.70;;;;;;;;;;5057759;28;20021;-71
2022/01/09 07:14:26;;;;;;;90.07;41.58;;;;;;;;;;5057542;28;20123;-71
2022/01/09 07:16:52;;;;;;;102.05;44.90;;;;;;;;;;5055342;28;20067;-71
2022/01/09 07:19:18;;;;;;;89.45;42.03;;;;;;;;;;5057251;28;20024;-72
2022/01/09 07:21:45;;;;;;;88.10;41.92;;;;;;;;;;5057288;28;20021;-72
2022/01/09 07:24:11;;;;;;;97.97;49.83;;;;;;;;;;5039649;28;20039;-72
2022/01/09 07:26:37;;;;;;;90.35;42.28;;;;;;;;;;5057257;28;20025;-71
2022/01/09 07:29:03;;;;;;;98.18;52.58;;;;;;;;;;5056768;28;20501;-72
2022/01/09 07:31:29;;;;;;;106.30;49.88;;;;;;;;;;5055809;28;20025;-71
2022/01/09 07:33:55;;;;;;;103.05;48.85;;;;;;;;;;5057089;28;20032;-71
2022/01/09 07:36:24;;;;;;;106.15;49.97;;;;;;;;;;5057150;28;20031;-73
2022/01/09 07:38:54;;;;;;;102.65;45.60;;;;;;;;;;5038958;28;20070;-72
2022/01/09 07:41:20;;;;;;;103.47;46.90;;;;;;;;;;5054438;28;20370;-73
2022/01/09 07:43:47;;;;;;;93.47;48.20;;;;;;;;;;5055804;28;20119;-72
2022/01/09 07:46:18;;;;;;;115.18;56.17;;;;;;;;;;5055331;28;20032;-72
2022/01/09 07:48:45;;;;;;;93.32;45.22;;;;;;;;;;5055902;28;20025;-72
2022/01/09 07:51:11;;;;;;;111.45;50.17;;;;;;;;;;5056807;28;20071;-71
2022/01/09 07:53:40;;;;;;;118.00;48.97;;;;;;;;;;5056724;28;20051;-73
2022/01/09 07:56:09;;;;;;;108.80;52.08;;;;;;;;;;5054783;28;20033;-73
2022/01/09 07:58:37;;;;;;;119.82;49.72;;;;;;;;;;5055407;28;20052;-73
2022/01/09 08:01:04;;;;;;;111.20;52.75;;;;;;;;;;5037799;28;20316;-71
2022/01/09 08:03:31;;;;;;;135.20;57.35;;;;;;;;;;5054955;28;20028;-73
2022/01/09 08:06:03;;;;;;;109.35;52.45;;;;;;;;;;5054969;28;20025;-73
2022/01/09 08:08:30;;;;;;;101.47;49.70;;;;;;;;;;5054843;28;20021;-72
2022/01/09 08:10:56;;;;;;;110.50;52.67;;;;;;;;;;5054989;28;20025;-71
2022/01/09 08:13:23;;;;;;;121.93;57.50;;;;;;;;;;5037611;28;20418;-71
2022/01/09 08:15:50;;;;;;;124.82;57.55;;;;;;;;;;5055406;28;20178;-72
2022/01/09 08:18:17;;;;;;;118.90;55.35;;;;;;;;;;5055116;28;20017;-72
2022/01/09 08:20:43;;;;;;;101.95;52.10;;;;;;;;;;5055247;28;20419;-71
2022/01/09 08:23:12;;;;;;;118.72;56.72;;;;;;;;;;5056405;28;20025;-73
2022/01/09 08:25:40;;;;;;;95.00;43.88;;;;;;;;;;5054260;28;20312;-73
2022/01/09 08:28:09;;;;;;;;;;;;;;;;;;5038683;28;20103;-73
2022/01/09 08:30:39;;;;;;;96.85;44.60;;;;;;;;;;5056311;28;20318;-73
2022/01/09 08:33:08;;;;;;;110.65;51.95;;;;;;;;;;5038550;28;20028;-72
2022/01/09 08:35:35;;;;;;;110.07;50.10;;;;;;;;;;5053414;28;20135;-73
2022/01/09 08:38:01;;;;;;;117.32;51.33;;;;;;;;;;5038225;28;20477;-72
2022/01/09 08:40:27;;;;;;;119.95;59.30;;;;;;;;;;5055743;28;20021;-71
2022/01/09 08:42:56;;;;;;;103.47;43.88;;;;;;;;;;5055144;28;20071;-73
2022/01/09 08:45:23;;;;;;;100.85;46.45;;;;;;;;;;5053929;28;20102;-73
2022/01/09 08:47:50;;;;;;;111.63;55.08;;;;;;;;;;5053460;28;20016;-72
2022/01/09 08:50:18;;;;;;;120.40;51.55;;;;;;;;;;5057664;28;20366;-73
2022/01/09 08:52:48;;;;;;;121.18;50.20;;;;;;;;;;5058122;28;20028;-71
2022/01/09 08:55:15;;;;;;;117.35;51.90;;;;;;;;;;5058561;28;20055;-72
2022/01/09 08:57:42;;;;;;;118.18;51.83;;;;;;;;;;5040227;28;20024;-74
2022/01/09 09:00:09;;;;;;;109.80;47.38;;;;;;;;;;5057460;28;20044;-72
2022/01/09 09:02:41;;;;;;;111.82;45.47;;;;;;;;;;5039629;28;20017;-74
2022/01/09 09:05:08;;;;;;;108.47;49.53;;;;;;;;;;5039262;28;20031;-73
2022/01/09 09:07:36;;;;;;;110.70;51.10;;;;;;;;;;5057448;28;20423;-73
2022/01/09 09:10:06;;;;;;;123.95;55.13;;;;;;;;;;5058195;28;20032;-73
2022/01/09 09:12:35;;;;;;;122.60;56.22;;;;;;;;;;5056704;28;20338;-71
2022/01/09 09:15:03;;;;;;;127.32;56.20;;;;;;;;;;5059570;28;20060;-71
2022/01/09 09:17:30;;;;;;;130.40;57.83;;;;;;;;;;5058339;28;20090;-72
2022/01/09 09:19:59;;;;;;;117.30;56.67;;;;;;;;;;5059561;28;20063;-72
2022/01/09 09:22:30;;;;;;;117.10;50.58;;;;;;;;;;5056712;28;20449;-73
2022/01/09 09:25:00;;;;;;;112.00;51.50;;;;;;;;;;5040537;28;20094;-73
2022/01/09 09:27:33;;;;;;;122.25;53.67;;;;;;;;;;5041459;28;20415;-72
2022/01/09 09:30:03;;;;;;;123.57;58.83;;;;;;;;;;5041156;28;20365;-73
2022/01/09 09:32:30;;;;;;;105.40;50.67;;;;;;;;;;5056949;28;20021;-73
2022/01/09 09:34:56;;;;;;;110.82;55.25;;;;;;;;;;5057522;28;20037;-72
2022/01/09 09:37:26;;;;;;;114.72;50.20;;;;;;;;;;5038853;28;20024;-72
2022/01/09 09:40:01;;;;;;;135.50;51.92;;;;;;;;;;5057240;28;20028;-73
2022/01/09 09:42:29;;;;;;;119.45;54.90;;;;;;;;;;5040631;28;20025;-72
2022/01/09 09:45:00;;;;;;;113.65;52.90;;;;;;;;;;5057147;28;20021;-72
2022/01/09 09:47:29;;;;;;;111.32;56.40;;;;;;;;;;5040175;28;20021;-73
2022/01/09 09:49:57;;;;;;;119.73;54.87;;;;;;;;;;5039745;28;20334;-71
2022/01/09 09:52:25;;;;;;;137.23;64.13;;;;;;;;;;5040501;28;20242;-72
2022/01/09 09:54:55;;;;;;;105.20;44.83;;;;;;;;;;5052657;28;20035;-73
2022/01/09 09:57:21;;;;;;;101.43;46.72;;;;;;;;;;5040900;28;20017;-72
2022/01/09 09:59:58;;;;;;;113.82;54.58;;;;;;;;;;5057138;28;20023;-72
2022/01/09 10:02:41;;;;;;;108.70;51.17;;;;;;;;;;5056982;28;20053;-71
2022/01/09 10:05:08;;;;;;;122.60;51.72;;;;;;;;;;5058035;28;20017;-72
2022/01/09 10:07:34;;;;;;;116.05;50.95;;;;;;;;;;5057386;28;20335;-72
2022/01/09 10:10:02;;;;;;;123.20;55.17;;;;;;;;;;5057673;28;20025;-71
2022/01/09 10:12:30;;;;;;;97.03;47.45;;;;;;;;;;5057489;28;20403;-72
2022/01/09 10:14:58;;;;;;;118.65;46.38;;;;;;;;;;5040526;28;20131;-72
2022/01/09 10:17:24;;;;;;;123.32;58.83;;;;;;;;;;5057358;28;20025;-72
2022/01/09 10:19:52;;;;;;;120.25;58.58;;;;;;;;;;5057025;28;20078;-72
2022/01/09 10:22:23;;;;;;;104.60;52.25;;;;;;;;;;5056746;28;20020;-71
2022/01/09 10:24:50;;;;;;;117.90;56.50;;;;;;;;;;5040409;28;20024;-72
2022/01/09 10:27:46;;;;;;;107.35;49.20;;;;;;;;;;5058209;28;20048;-71
2022/01/09 10:30:12;;;;;;;118.30;57.00;;;;;;;;;;5040339;28;20315;-71
2022/01/09 10:32:39;;;;;;;113.32;49.97;;;;;;;;;;5056917;28;20391;-72
2022/01/09 10:35:06;;;;;;;116.70;46.03;;;;;;;;;;5055215;28;20036;-73
2022/01/09 10:37:35;;;;;;;115.38;50.25;;;;;;;;;;5056907;28;20403;-73
2022/01/09 10:40:05;;;;;;;116.43;51.08;;;;;;;;;;5054808;28;20044;-72
2022/01/09 10:42:32;;;;;;;126.82;51.80;;;;;;;;;;5055347;28;20032;-72
2022/01/09 10:45:14;;;;;;;120.75;47.85;;;;;;;;;;5037063;28;20407;-73
2022/01/09 10:47:40;;;;;;;124.57;57.38;;;;;;;;;;5056830;28;20025;-72
2022/01/09 10:50:10;;;;;;;119.30;49.70;;;;;;;;;;5056613;28;20044;-73
2022/01/09 10:52:41;;;;;;;125.32;55.78;;;;;;;;;;5039889;28;20350;-73
2022/01/09 10:55:08;;;;;;;117.33;54.00;;;;;;;;;;5057009;28;20123;-72
2022/01/09 10:57:39;;;;;;;131.98;62.22;;;;;;;;;;5057488;28;20094;-72
2022/01/09 11:00:08;;;;;;;126.70;59.88;;;;;;;;;;5056190;28;20025;-72
2022/01/09 11:02:34;;;;;;;120.28;55.72;;;;;;;;;;5054682;28;20028;-72
2022/01/09 11:05:12;;;;;;;124.05;56.45;;;;;;;;;;5056432;28;20078;-73
2022/01/09 11:07:40;;;;;;;111.95;51.58;;;;;;;;;;5052218;28;20017;-72
2022/01/09 11:10:08;;;;;;;124.85;52.75;;;;;;;;;;5039708;28;20316;-71
2022/01/09 11:12:46;;;;;;;123.97;55.00;;;;;;;;;;5038437;28;20350;-72
2022/01/09 11:15:13;;;;;;;130.27;59.22;;;;;;;;;;5038940;28;20033;-72
2022/01/09 11:17:40;;;;;;;125.72;62.50;;;;;;;;;;5055546;28;20402;-73
2022/01/09 11:20:06;;;;;;;140.70;64.63;;;;;;;;;;5055720;28;20032;-71
2022/01/09 11:22:32;;;;;;;130.10;56.00;;;;;;;;;;5056399;28;20027;-72
2022/01/09 11:25:16;;;;;;;161.70;68.50;;;;;;;;;;5057458;28;20020;-72
2022/01/09 11:27:55;;;;;;;137.00;66.97;;;;;;;;;;5055853;28;20028;-72
2022/01/09 11:30:29;;;;;;;155.75;63.35;;;;;;;;;;5056129;28;20502;-71
2022/01/09 11:33:30;;;;;;;122.93;56.05;;;;;;;;;;5056093;28;20032;-72
2022/01/09 11:35:59;;;;;;;143.10;63.72;;;;;;;;;;4976000;28;20039;-71
2022/01/09 11:38:25;;;;;;;142.57;63.53;;;;;;;;;;5037769;28;20507;-71
2022/01/09 11:40:52;;;;;;;153.07;61.30;;;;;;;;;;5057322;28;20016;-72
2022/01/09 11:43:19;;;;;;;155.13;63.42;;;;;;;;;;5039291;28;20108;-71
2022/01/09 11:45:48;;;;;;;143.05;64.80;;;;;;;;;;5056709;28;20021;-71
2022/01/09 11:48:16;;;;;;;147.95;65.65;;;;;;;;;;5056546;28;20025;-71
2022/01/09 11:51:00;;;;;;;166.80;67.97;;;;;;;;;;5056683;28;20021;-71
2022/01/09 11:53:26;;;;;;;157.35;67.22;;;;;;;;;;5056301;28;20372;-71
2022/01/09 11:55:52;;;;;;;155.02;71.13;;;;;;;;;;5056983;28;20071;-71
2022/01/09 11:58:20;;;;;;;177.90;72.25;;;;;;;;;;5055221;28;20369;-71
2022/01/09 12:00:47;;;;;;;158.07;70.65;;;;;;;;;;5039359;28;20021;-72
2022/01/09 12:03:30;;;;;;;142.10;61.85;;;;;;;;;;5039354;28;20024;-72
2022/01/09 12:05:59;;;;;;;144.85;62.00;;;;;;;;;;5055584;28;20035;-71
2022/01/09 12:08:25;;;;;;;146.65;62.72;;;;;;;;;;5056821;28;20021;-71
2022/01/09 12:10:52;;;;;;;147.88;63.22;;;;;;;;;;5056591;28;20054;-71
2022/01/09 12:13:47;;;;;;;149.43;65.35;;;;;;;;;;5055146;28;20013;-71
2022/01/09 12:16:36;;;;;;;121.18;56.13;;;;;;;;;;5053769;28;20061;-71
2022/01/09 12:19:02;;;;;;;146.82;60.95;;;;;;;;;;5043181;28;20025;-71
2022/01/09 12:21:39;;;;;;;148.30;60.78;;;;;;;;;;5055652;28;20418;-71
2022/01/09 12:24:24;;;;;;;123.60;53.60;;;;;;;;;;5040347;28;20017;-71
2022/01/09 12:26:50;;;;;;;104.30;45.22;;;;;;;;;;5059528;28;20031;-71
2022/01/09 12:29:35;;;;;;;98.65;46.20;;;;;;;;;;5059052;28;20025;-71
2022/01/09 12:32:01;;;;;;;128.80;58.95;;;;;;;;;;5043265;28;20028;-71
2022/01/09 12:34:27;;;;;;;133.77;58.95;;;;;;;;;;5060568;28;20040;-71
2022/01/09 12:36:54;;;;;;;124.97;57.13;;;;;;;;;;5059365;28;20112;-71
2022/01/09 12:39:21;;;;;;;121.20;48.50;;;;;;;;;;5060128;28;20021;-71
2022/01/09 12:41:47;;;;;;;136.98;60.63;;;;;;;;;;5060696;28;20108;-71
2022/01/09 12:44:13;;;;;;;125.25;56.55;;;;;;;;;;5042845;28;20024;-71
2022/01/09 12:46:41;;;;;;;120.25;54.38;;;;;;;;;;5059317;28;20025;-72
2022/01/09 12:49:09;;;;;;;115.72;49.33;;;;;;;;;;5059990;28;20021;-71
2022/01/09 12:51:36;;;;;;;116.00;53.33;;;;;;;;;;5059324;28;20431;-71
2022/01/09 12:54:05;;;;;;;136.75;58.30;;;;;;;;;;5042683;28;20331;-71
2022/01/09 12:56:41;;;;;;;113.00;55.88;;;;;;;;;;5059782;28;20041;-71
2022/01/09 12:59:09;;;;;;;118.70;56.47;;;;;;;;;;5060300;28;20029;-71
2022/01/09 13:01:38;;;;;;;128.50;55.72;;;;;;;;;;5059014;28;20119;-71
2022/01/09 13:04:11;;;;;;;118.60;50.15;;;;;;;;;;5058354;28;20021;-71
2022/01/09 13:06:39;;;;;;;97.82;50.15;;;;;;;;;;5059271;28;20043;-71
2022/01/09 13:09:11;;;;;;;105.82;48.20;;;;;;;;;;5059395;28;20029;-71
2022/01/09 13:11:38;;;;;;;111.55;47.90;;;;;;;;;;5059781;28;20032;-71
2022/01/09 13:14:06;;;;;;;119.88;53.85;;;;;;;;;;5059015;28;20058;-71
2022/01/09 13:16:35;;;;;;;112.95;55.45;;;;;;;;;;5058729;28;20086;-71
2022/01/09 13:19:02;;;;;;;126.75;57.95;;;;;;;;;;5058060;28;20013;-71
2022/01/09 13:21:31;;;;;;;114.53;56.08;;;;;;;;;;5042221;28;20025;-71
2022/01/09 13:23:59;;;;;;;124.75;51.35;;;;;;;;;;5058473;28;20017;-71
2022/01/09 13:26:34;;;;;;;118.13;51.67;;;;;;;;;;5059123;28;20028;-72
2022/01/09 13:29:02;;;;;;;121.97;58.83;;;;;;;;;;5058671;28;20020;-71
2022/01/09 13:31:32;;;;;;;125.10;58.13;;;;;;;;;;5041906;28;20481;-71
2022/01/09 13:34:06;;;;;;;119.57;55.07;;;;;;;;;;5057948;28;20019;-71
2022/01/09 13:36:38;;;;;;;142.63;63.25;;;;;;;;;;5057848;28;20028;-72
2022/01/09 13:39:11;;;;;;;128.85;53.03;;;;;;;;;;5041664;28;20058;-71
2022/01/09 13:41:39;;;;;;;124.72;55.63;;;;;;;;;;5057621;28;20017;-71
2022/01/09 13:44:05;;;;;;;112.85;53.15;;;;;;;;;;5041407;28;20119;-71
2022/01/09 13:46:31;;;;;;;130.73;56.28;;;;;;;;;;5057984;28;20107;-71
2022/01/09 13:48:57;;;;;;;123.43;55.53;;;;;;;;;;5058960;28;20116;-71
2022/01/09 13:51:40;;;;;;;108.07;49.00;;;;;;;;;;5058523;28;20108;-71
2022/01/09 13:54:07;;;;;;;134.50;53.53;;;;;;;;;;5041266;28;20115;-71
2022/01/09 13:56:33;;;;;;;104.40;47.38;;;;;;;;;;5058887;28;20059;-72
2022/01/09 13:58:59;;;;;;;117.35;52.35;;;;;;;;;;5058660;28;20044;-71
2022/01/09 14:01:45;;;;;;;120.00;52.55;;;;;;;;;;5057203;28;20409;-71
2022/01/09 14:04:17;;;;;;;117.45;53.15;;;;;;;;;;5058563;28;20021;-73
2022/01/09 14:06:44;;;;;;;112.32;52.58;;;;;;;;;;5058735;28;20021;-73
2022/01/09 14:09:10;;;;;;;136.68;57.35;;;;;;;;;;5057715;28;20039;-74
2022/01/09 14:11:41;;;;;;;131.80;53.38;;;;;;;;;;5040846;28;20075;-73
2022/01/09 14:14:11;;;;;;;121.78;50.58;;;;;;;;;;5057705;28;20031;-73
2022/01/09 14:16:37;;;;;;;109.03;51.03;;;;;;;;;;5057038;28;20442;-73